Aktuální počasí v Česku a ve světě - METAR

Seznam meteostanic umístěných nejčasteji na letišti v ČR a ve světě

Vyhledat místa podle abecedy:
A B C D E F G H I J K L M N O P Q R S T U V W X Y Z

Filtrovat:

ID stanice:
a/nebo
Název místa (fulltext):
 
Místo (ID)Naposledy načteno 
Rarotonga I (NCRG) 19.06.2021 14:00 UTC Zobrazit METAR
NCRG 191400Z 20012KT 9999 VCSH SCT010 BKN040 24/21 Q1010 RMK SPECI CONDX CEASED
Reykjavik (BIRK) 19.06.2021 14:00 UTC Zobrazit METAR
BIRK 191400Z 32009KT 9999 FEW040 SCT059 09/03 Q1013
Riga (EVRA) 19.06.2021 13:50 UTC Zobrazit METAR
EVRA 191350Z 17011KT 130V200 CAVOK 30/15 Q1018 NOSIG
Rimini (LIPR) 19.06.2021 13:50 UTC Zobrazit METAR
LIPR 191350Z 04007KT CAVOK 29/17 Q1014
Riyadh (OERY) 19.06.2021 14:00 UTC Zobrazit METAR
OERY 191400Z 32010KT CAVOK 42/M03 Q1007
Road Town (TUPJ) 19.06.2021 14:00 UTC Zobrazit METAR
TUPJ 191400Z 09013KT 10SM SCT019 29/24 A3013 RMK Q1020 VIS16KM
Rodos (LGRP) 19.06.2021 13:50 UTC Zobrazit METAR
LGRP 191350Z 22018KT 9999 FEW018 26/19 Q1008 NOSIG
Rome (LIRF) 19.06.2021 13:50 UTC Zobrazit METAR
LIRF 191350Z 27008KT 240V300 CAVOK 28/14 Q1017 NOSIG
Roseau (TDCF) 19.06.2021 12:00 UTC Zobrazit METAR
TDCF 191200Z 16001KT 9999 BKN015 27/25 Q1016
Rotterdam (EHRD) 19.06.2021 13:55 UTC Zobrazit METAR
EHRD 191355Z AUTO 29006KT 250V330 9999 FEW012 OVC015 17/14 Q1015 NOSIG
Rzeszow (EPRZ) 19.06.2021 14:00 UTC Zobrazit METAR
EPRZ 191400Z 10008KT 050V140 CAVOK 29/15 Q1016
Reklama

Reklama


Newslettter

Počasí na Váš email

Emaily jsou bez reklamy a bez spamu



Odhlásit newsletter



Kontaktujte nás

Kontaktujte Slunečno.cz

Kontaktujte provozovatele Slunecno.cz

Další české internetové stránky (nejen) o počasí najdete v katalogu TOPlist - weby o počasí nebo vyhledejte na internetu, co jste tu na Počasí Slunečno Slunečnu zatím nenašli:
Přidat mezzi oblíbené stránkyPřidat Slunečno.cz do oblíbených | Nastavit jako HOMEPAGENastavit Slunečno.cz jako HOMEPAGE

Posunout stránku nahoru Posunout stránku nahoru Posunout stránku nahoru
Reklama